Terminal Aerodrome Forecast
Issued by NWS Wilmington, OH

Current Version | Previous Version | Text Only | Print | Product List | Glossary Off
Versions: 1 2 3 4 5 6 7 8 9 10 11 12 13 14 15 16 17 18 19 20 21 22 23 24

000
FTUS41 KILN 160500
TAFDAY
TAF
KDAY 160535Z 1606/1706 16008KT P6SM OVC017
     FM160700 18011KT P6SM OVC015
      TEMPO 1608/1612 -SHRA
     FM161300 20012KT 5SM BR OVC010
     FM161600 24014G22KT 5SM BR VCSH OVC012
     FM162000 25014G22KT P6SM OVC015=

USA.gov is the U.S. government's official web portal to all federal, state and local government web resources and services.